5MA4 weather

Public forecast

Using degrees Fahrenheit for public forecast. Weather courtesy of forecast.io.

Closest aviation weather report (METAR) to Double A Heliport

Closest report is Plymouth Municipal Airport, 2.1 nm (3.8 km) ESE. Retrieved 2020/08/11 10:52 UTC (56 minutes ago):

KPYM 111052Z AUTO 21004KT 10SM OVC006 23/22 A2999 RMK AO2 PK WND 21026/1033 SLP154 T02330222

Closest aviation forecast (TAF) to Double A Heliport

Closest forecast is Cape Cod Coast Guard Air Station, 19.5 nm (36.0 km) SE. Retrieved 2020/08/11 06:22 UTC (5 hours ago):

TAF KFMH 110520Z 1106/1206 23010KT P6SM OVC008 FM110900 22006KT P6SM OVC006 FM111100 22007KT P6SM BKN006 FM111300 22010KT P6SM BKN060